Time,TemperatureF,DewpointF,PressureIn,WindDirection,WindDirectionDegrees,WindSpeedMPH,WindSpeedGustMPH,Humidity,HourlyPrecipIn,Conditions,Clouds,dailyrainin,SoftwareType,DateUTC
2013-07-15 00:00:00,75.6,71.8,30.23,SSE,155,2.0,3.0,88,0.00,,OVC090,0.00,VWS V14.00,2013-07-15 04:00:00,
2013-07-15 00:01:00,75.5,71.7,30.24,SSW,211,1.0,2.0,88,0.00,,CLR,0.00,VWS V14.00,2013-07-15 04:01:00,
2013-07-15 00:02:00,75.6,71.8,30.24,SW,214,1.0,3.0,88,0.00,,CLR,0.00,VWS V14.00,2013-07-15 04:02:00,
2013-07-15 00:04:00,75.6,71.8,30.24,South,174,1.0,3.0,88,0.00,,CLR,0.00,VWS V14.00,2013-07-15 04:04:00,
2013-07-15 00:07:00,75.6,71.8,30.24,SSW,200,0.0,4.0,88,0.00,,CLR,0.00,VWS V14.00,2013-07-15 04:07:00,
2013-07-15 00:12:00,75.7,71.9,30.24,South,171,1.0,4.0,88,0.00,,CLR,0.00,VWS V14.00,2013-07-15 04:12:00,
2013-07-15 00:17:00,75.7,71.9,30.23,West,278,1.0,4.0,88,0.00,,CLR,0.00,VWS V14.00,2013-07-15 04:17:00,
2013-07-15 00:22:00,75.7,71.9,30.23,SSW,203,0.0,4.0,88,0.00,,CLR,0.00,VWS V14.00,2013-07-15 04:22:00,
2013-07-15 00:27:00,75.7,72.2,30.23,SSW,210,0.0,4.0,89,0.00,,CLR,0.00,VWS V14.00,2013-07-15 04:27:00,
2013-07-15 00:30:00,75.6,72.1,30.23,SSW,210,1.0,4.0,89,0.00,,OVC090,0.00,VWS V14.00,2013-07-15 04:30:00,
2013-07-15 00:32:00,75.6,72.1,30.23,SSW,196,1.0,3.0,89,0.00,,CLR,0.00,VWS V14.00,2013-07-15 04:32:00,
2013-07-15 00:37:00,75.8,72.3,30.23,SSW,198,0.0,3.0,89,0.00,,CLR,0.00,VWS V14.00,2013-07-15 04:37:00,
2013-07-15 00:42:00,75.8,72.3,30.23,SW,219,0.0,3.0,89,0.00,,CLR,0.00,VWS V14.00,2013-07-15 04:42:00,
2013-07-15 00:47:00,75.8,72.3,30.23,SSW,195,1.0,3.0,89,0.00,,CLR,0.00,VWS V14.00,2013-07-15 04:47:00,
2013-07-15 00:52:00,75.8,72.3,30.23,SW,235,0.0,4.0,89,0.00,,CLR,0.00,VWS V14.00,2013-07-15 04:52:00,
2013-07-15 00:57:00,75.6,72.1,30.23,South,186,1.0,4.0,89,0.00,,CLR,0.00,VWS V14.00,2013-07-15 04:57:00,
2013-07-15 01:00:00,75.6,72.5,30.23,SSW,210,0.0,4.0,90,0.00,,OVC090,0.00,VWS V14.00,2013-07-15 05:00:00,
2013-07-15 01:02:00,75.5,72.4,30.23,West,261,0.0,2.0,90,0.00,,CLR,0.00,VWS V14.00,2013-07-15 05:02:00,
2013-07-15 01:08:00,75.5,72.4,30.23,WSW,256,0.0,2.0,90,0.00,,CLR,0.00,VWS V14.00,2013-07-15 05:08:00,
2013-07-15 01:13:00,75.4,72.3,30.23,SW,236,1.0,2.0,90,0.00,,CLR,0.00,VWS V14.00,2013-07-15 05:13:00,
2013-07-15 01:18:00,75.2,72.1,30.23,SW,236,0.0,2.0,90,0.00,,CLR,0.00,VWS V14.00,2013-07-15 05:18:00,
2013-07-15 01:23:00,75.0,71.9,30.23,WSW,250,0.0,2.0,90,0.00,,CLR,0.00,VWS V14.00,2013-07-15 05:23:00,
2013-07-15 01:28:00,74.9,72.1,30.23,SSE,149,0.0,2.0,91,0.00,,CLR,0.00,VWS V14.00,2013-07-15 05:28:00,
2013-07-15 01:30:00,74.9,72.1,30.23,SSW,200,0.0,2.0,91,0.00,,OVC090,0.00,VWS V14.00,2013-07-15 05:30:00,
2013-07-15 01:33:00,74.9,72.1,30.23,ESE,107,0.0,2.0,91,0.00,,CLR,0.00,VWS V14.00,2013-07-15 05:33:00,
2013-07-15 01:38:00,74.8,72.0,30.23,ESE,107,0.0,2.0,91,0.00,,CLR,0.00,VWS V14.00,2013-07-15 05:38:00,
2013-07-15 01:43:00,74.6,71.8,30.23,SW,219,0.0,2.0,91,0.00,,CLR,0.00,VWS V14.00,2013-07-15 05:43:00,
2013-07-15 01:48:00,74.5,71.7,30.23,SSE,155,1.0,2.0,91,0.00,,CLR,0.00,VWS V14.00,2013-07-15 05:48:00,
2013-07-15 01:53:00,74.5,72.0,30.23,East,94,0.0,2.0,92,0.00,,CLR,0.00,VWS V14.00,2013-07-15 05:53:00,
2013-07-15 01:58:00,74.5,72.0,30.23,ESE,104,0.0,2.0,92,0.00,,CLR,0.00,VWS V14.00,2013-07-15 05:58:00,
2013-07-15 02:00:00,74.5,72.0,30.23,ESE,104,0.0,2.0,92,0.00,,OVC090,0.00,VWS V14.00,2013-07-15 06:00:00,
2013-07-15 02:03:00,74.5,72.0,30.23,ESE,115,1.0,1.0,92,0.00,,CLR,0.00,VWS V14.00,2013-07-15 06:03:00,
2013-07-15 02:08:00,74.4,71.9,30.23,ESE,115,0.0,1.0,92,0.00,,CLR,0.00,VWS V14.00,2013-07-15 06:08:00,
2013-07-15 02:13:00,74.1,71.6,30.23,ESE,115,0.0,1.0,92,0.00,,CLR,0.00,VWS V14.00,2013-07-15 06:13:00,
2013-07-15 02:18:00,73.9,71.4,30.24,ESE,115,0.0,1.0,92,0.00,,CLR,0.00,VWS V14.00,2013-07-15 06:18:00,
2013-07-15 02:23:00,73.7,71.2,30.23,ESE,115,0.0,1.0,92,0.00,,CLR,0.00,VWS V14.00,2013-07-15 06:23:00,
2013-07-15 02:28:00,73.6,71.5,30.23,ESE,115,0.0,1.0,93,0.00,,CLR,0.00,VWS V14.00,2013-07-15 06:28:00,
2013-07-15 02:30:00,73.6,71.5,30.23,ESE,115,0.0,1.0,93,0.00,,OVC090,0.00,VWS V14.00,2013-07-15 06:30:00,
2013-07-15 02:33:00,73.6,71.5,30.23,ESE,115,0.0,0.0,93,0.00,,CLR,0.00,VWS V14.00,2013-07-15 06:33:00,
2013-07-15 02:38:00,73.3,71.2,30.23,ESE,115,0.0,0.0,93,0.00,,CLR,0.00,VWS V14.00,2013-07-15 06:38:00,
2013-07-15 02:43:00,73.3,71.5,30.23,ESE,115,0.0,0.0,94,0.00,,CLR,0.00,VWS V14.00,2013-07-15 06:43:00,
2013-07-15 02:48:00,73.3,71.5,30.23,ESE,115,0.0,0.0,94,0.00,,CLR,0.00,VWS V14.00,2013-07-15 06:48:00,
2013-07-15 02:53:00,73.2,71.4,30.23,ESE,115,0.0,0.0,94,0.00,,CLR,0.00,VWS V14.00,2013-07-15 06:53:00,
2013-07-15 02:59:00,73.0,71.2,30.23,ESE,115,0.0,0.0,94,0.00,,CLR,0.00,VWS V14.00,2013-07-15 06:59:00,
2013-07-15 03:00:00,73.0,71.2,30.23,ESE,115,0.0,0.0,94,0.00,,OVC090,0.00,VWS V14.00,2013-07-15 07:00:00,
2013-07-15 03:04:00,72.9,71.1,30.23,ESE,115,0.0,0.0,94,0.00,,CLR,0.00,VWS V14.00,2013-07-15 07:04:00,
2013-07-15 03:09:00,72.8,71.0,30.23,ESE,115,0.0,0.0,94,0.00,,CLR,0.00,VWS V14.00,2013-07-15 07:09:00,
2013-07-15 03:14:00,72.8,71.3,30.23,ESE,115,0.0,0.0,95,0.00,,CLR,0.00,VWS V14.00,2013-07-15 07:14:00,
2013-07-15 03:19:00,72.7,71.2,30.23,ESE,115,0.0,0.0,95,0.00,,CLR,0.00,VWS V14.00,2013-07-15 07:19:00,
2013-07-15 03:24:00,72.6,70.8,30.23,ESE,115,0.0,0.0,94,0.00,,CLR,0.00,VWS V14.00,2013-07-15 07:24:00,
2013-07-15 03:29:00,72.4,70.9,30.23,ESE,115,0.0,0.0,95,0.00,,CLR,0.00,VWS V14.00,2013-07-15 07:29:00,
2013-07-15 03:30:00,72.4,70.9,30.23,ESE,115,0.0,0.0,95,0.00,,OVC090,0.00,VWS V14.00,2013-07-15 07:30:00,
2013-07-15 03:34:00,72.4,70.9,30.23,ESE,115,0.0,0.0,95,0.00,,CLR,0.00,VWS V14.00,2013-07-15 07:34:00,
2013-07-15 03:39:00,72.3,70.8,30.23,ESE,115,0.0,0.0,95,0.00,,CLR,0.00,VWS V14.00,2013-07-15 07:39:00,
2013-07-15 03:44:00,72.3,70.8,30.23,ESE,115,0.0,0.0,95,0.00,,CLR,0.00,VWS V14.00,2013-07-15 07:44:00,
2013-07-15 03:49:00,72.3,70.8,30.23,ESE,115,0.0,0.0,95,0.00,,CLR,0.00,VWS V14.00,2013-07-15 07:49:00,
2013-07-15 03:54:00,72.1,70.6,30.23,ESE,115,0.0,0.0,95,0.00,,CLR,0.00,VWS V14.00,2013-07-15 07:54:00,
2013-07-15 03:59:00,72.0,70.5,30.23,ESE,115,0.0,0.0,95,0.00,,CLR,0.00,VWS V14.00,2013-07-15 07:59:00,
2013-07-15 04:00:00,72.0,70.5,30.23,ESE,115,0.0,0.0,95,0.00,,OVC090,0.00,VWS V14.00,2013-07-15 08:00:00,
2013-07-15 04:04:00,71.9,70.4,30.24,ESE,115,0.0,0.0,95,0.00,,CLR,0.00,VWS V14.00,2013-07-15 08:04:00,
2013-07-15 04:09:00,72.0,70.5,30.23,SSE,149,0.0,1.0,95,0.00,,CLR,0.00,VWS V14.00,2013-07-15 08:09:00,
2013-07-15 04:14:00,72.0,70.5,30.23,SSE,149,0.0,1.0,95,0.00,,CLR,0.00,VWS V14.00,2013-07-15 08:14:00,
2013-07-15 04:19:00,71.9,70.4,30.23,SSE,149,0.0,1.0,95,0.00,,CLR,0.00,VWS V14.00,2013-07-15 08:19:00,
2013-07-15 04:24:00,71.7,70.2,30.23,SSE,150,0.0,1.0,95,0.00,,CLR,0.00,VWS V14.00,2013-07-15 08:24:00,
2013-07-15 04:29:00,71.6,70.1,30.23,SSE,149,0.0,0.0,95,0.00,,CLR,0.00,VWS V14.00,2013-07-15 08:29:00,
2013-07-15 04:30:00,71.6,70.1,30.23,SSE,149,0.0,1.0,95,0.00,,OVC090,0.00,VWS V14.00,2013-07-15 08:30:00,
2013-07-15 04:34:00,71.5,70.0,30.23,SSE,149,0.0,0.0,95,0.00,,CLR,0.00,VWS V14.00,2013-07-15 08:34:00,
2013-07-15 04:39:00,71.4,69.9,30.23,SSE,149,0.0,0.0,95,0.00,,CLR,0.00,VWS V14.00,2013-07-15 08:39:00,
2013-07-15 04:45:00,71.2,69.7,30.23,SSE,149,0.0,0.0,95,0.00,,CLR,0.00,VWS V14.00,2013-07-15 08:45:00,
2013-07-15 04:50:00,71.1,69.6,30.23,SSE,149,0.0,0.0,95,0.00,,CLR,0.00,VWS V14.00,2013-07-15 08:50:00,
2013-07-15 04:55:00,70.9,69.4,30.23,SSE,149,0.0,0.0,95,0.00,,CLR,0.00,VWS V14.00,2013-07-15 08:55:00,
2013-07-15 05:00:00,70.8,69.3,30.23,SSE,149,0.0,0.0,95,0.00,,CLR,0.00,VWS V14.00,2013-07-15 09:00:00,
2013-07-15 05:05:00,70.7,69.2,30.23,SSE,150,0.0,0.0,95,0.00,,CLR,0.00,VWS V14.00,2013-07-15 09:05:00,
2013-07-15 05:10:00,70.7,69.5,30.23,SSE,149,0.0,0.0,96,0.00,,CLR,0.00,VWS V14.00,2013-07-15 09:10:00,
2013-07-15 05:15:00,70.7,69.5,30.23,SSE,150,0.0,0.0,96,0.00,,CLR,0.00,VWS V14.00,2013-07-15 09:15:00,
2013-07-15 05:20:00,70.7,69.5,30.23,SSE,149,0.0,0.0,96,0.00,,CLR,0.00,VWS V14.00,2013-07-15 09:20:00,
2013-07-15 05:25:00,70.7,69.5,30.23,SSE,149,0.0,0.0,96,0.00,,CLR,0.00,VWS V14.00,2013-07-15 09:25:00,
2013-07-15 05:30:00,70.6,69.4,30.23,SSE,149,0.0,0.0,96,0.00,,CLR,0.00,VWS V14.00,2013-07-15 09:30:00,
2013-07-15 05:35:00,70.5,69.3,30.23,SSE,149,0.0,0.0,96,0.00,,CLR,0.00,VWS V14.00,2013-07-15 09:35:00,
2013-07-15 05:40:00,70.5,69.3,30.23,SSE,150,0.0,0.0,96,0.00,,CLR,0.00,VWS V14.00,2013-07-15 09:40:00,
2013-07-15 05:45:00,70.4,69.2,30.23,SSE,149,0.0,1.0,96,0.00,,CLR,0.00,VWS V14.00,2013-07-15 09:45:00,
2013-07-15 05:50:00,70.4,69.2,30.23,SSE,149,0.0,1.0,96,0.00,,CLR,0.00,VWS V14.00,2013-07-15 09:50:00,
2013-07-15 05:55:00,70.4,69.2,30.24,SSE,149,0.0,1.0,96,0.00,,CLR,0.00,VWS V14.00,2013-07-15 09:55:00,
2013-07-15 06:00:00,70.4,69.2,30.24,SSE,149,0.0,0.0,96,0.00,,CLR,0.00,VWS V14.00,2013-07-15 10:00:00,
2013-07-15 06:05:00,70.5,69.3,30.24,SSE,149,0.0,1.0,96,0.00,,CLR,0.00,VWS V14.00,2013-07-15 10:05:00,
2013-07-15 06:10:00,70.6,69.4,30.24,SSE,150,0.0,1.0,96,0.00,,CLR,0.00,VWS V14.00,2013-07-15 10:10:00,
2013-07-15 06:15:00,70.7,69.5,30.24,SSE,150,0.0,1.0,96,0.00,,CLR,0.00,VWS V14.00,2013-07-15 10:15:00,
2013-07-15 06:20:00,70.9,69.7,30.24,SW,233,0.0,1.0,96,0.00,,CLR,0.00,VWS V14.00,2013-07-15 10:20:00,
2013-07-15 06:25:00,71.0,69.8,30.24,SSE,150,1.0,2.0,96,0.00,,CLR,0.00,VWS V14.00,2013-07-15 10:25:00,
2013-07-15 06:30:00,71.1,69.9,30.24,SSE,159,0.0,2.0,96,0.00,,OVC090,0.00,VWS V14.00,2013-07-15 10:30:00,
2013-07-15 06:31:00,71.1,69.9,30.24,SSE,159,0.0,0.0,96,0.00,,CLR,0.00,VWS V14.00,2013-07-15 10:31:00,
2013-07-15 06:36:00,71.4,70.2,30.24,SSE,160,0.0,1.0,96,0.00,,CLR,0.00,VWS V14.00,2013-07-15 10:36:00,
2013-07-15 06:41:00,71.7,70.5,30.24,South,173,1.0,1.0,96,0.00,,CLR,0.00,VWS V14.00,2013-07-15 10:41:00,
2013-07-15 06:46:00,72.3,71.1,30.24,South,170,0.0,1.0,96,0.00,,CLR,0.00,VWS V14.00,2013-07-15 10:46:00,
2013-07-15 06:51:00,73.0,71.5,30.24,ESE,108,1.0,2.0,95,0.00,,CLR,0.00,VWS V14.00,2013-07-15 10:51:00,
2013-07-15 06:56:00,74.0,72.5,30.24,ESE,122,0.0,2.0,95,0.00,,CLR,0.00,VWS V14.00,2013-07-15 10:56:00,
2013-07-15 07:00:00,74.7,72.9,30.24,ESE,122,0.0,2.0,94,0.00,,OVC090,0.00,VWS V14.00,2013-07-15 11:00:00,
2013-07-15 07:01:00,75.1,72.9,30.24,ESE,123,0.0,1.0,93,0.00,,CLR,0.00,VWS V14.00,2013-07-15 11:01:00,
2013-07-15 07:06:00,76.0,73.2,30.24,SE,125,0.0,1.0,91,0.00,,CLR,0.00,VWS V14.00,2013-07-15 11:06:00,
2013-07-15 07:11:00,77.0,73.5,30.24,North,9,0.0,3.0,89,0.00,,CLR,0.00,VWS V14.00,2013-07-15 11:11:00,
2013-07-15 07:16:00,78.0,73.8,30.24,North,9,0.0,3.0,87,0.00,,CLR,0.00,VWS V14.00,2013-07-15 11:16:00,
2013-07-15 07:21:00,78.6,74.1,30.24,NNW,336,0.0,3.0,86,0.00,,CLR,0.00,VWS V14.00,2013-07-15 11:21:00,
2013-07-15 07:26:00,79.3,74.4,30.24,SSW,197,0.0,3.0,85,0.00,,CLR,0.00,VWS V14.00,2013-07-15 11:26:00,
2013-07-15 07:30:00,79.6,74.3,30.24,East,86,1.0,3.0,84,0.00,,OVC090,0.00,VWS V14.00,2013-07-15 11:30:00,
2013-07-15 07:31:00,79.8,74.5,30.24,SSW,201,2.0,2.0,84,0.00,,CLR,0.00,VWS V14.00,2013-07-15 11:31:00,
2013-07-15 07:36:00,80.1,74.5,30.24,NNW,347,4.0,4.0,83,0.00,,CLR,0.00,VWS V14.00,2013-07-15 11:36:00,
2013-07-15 07:41:00,80.7,74.3,30.24,SSW,208,1.0,4.0,81,0.00,,CLR,0.00,VWS V14.00,2013-07-15 11:41:00,
2013-07-15 07:46:00,81.3,75.3,30.24,West,273,0.0,4.0,82,0.00,,CLR,0.00,VWS V14.00,2013-07-15 11:46:00,
2013-07-15 07:52:00,81.4,74.6,30.24,ESE,122,0.0,4.0,80,0.00,,CLR,0.00,VWS V14.00,2013-07-15 11:52:00,
2013-07-15 07:57:00,82.0,75.2,30.24,ESE,108,0.0,4.0,80,0.00,,CLR,0.00,VWS V14.00,2013-07-15 11:57:00,
2013-07-15 08:00:00,82.3,74.8,30.24,NNW,335,1.0,4.0,78,0.00,,OVC090,0.00,VWS V14.00,2013-07-15 12:00:00,
2013-07-15 08:02:00,82.4,74.9,30.24,ESE,120,3.0,4.0,78,0.00,,CLR,0.00,VWS V14.00,2013-07-15 12:02:00,
2013-07-15 08:07:00,82.6,75.1,30.24,East,94,0.0,4.0,78,0.00,,CLR,0.00,VWS V14.00,2013-07-15 12:07:00,
2013-07-15 08:12:00,83.0,75.1,30.24,North,351,5.0,5.0,77,0.00,,CLR,0.00,VWS V14.00,2013-07-15 12:12:00,
2013-07-15 08:17:00,83.1,74.8,30.24,SSE,159,2.0,5.0,76,0.00,,CLR,0.00,VWS V14.00,2013-07-15 12:17:00,
2013-07-15 08:22:00,83.5,74.8,30.24,ESE,111,1.0,5.0,75,0.00,,CLR,0.00,VWS V14.00,2013-07-15 12:22:00,
2013-07-15 08:27:00,84.0,75.2,30.24,SW,219,4.0,5.0,75,0.00,,CLR,0.00,VWS V14.00,2013-07-15 12:27:00,
2013-07-15 08:30:00,84.0,75.2,30.24,West,273,2.0,5.0,75,0.00,,OVC090,0.00,VWS V14.00,2013-07-15 12:30:00,
2013-07-15 08:32:00,84.0,74.4,30.24,ESE,123,1.0,2.0,73,0.00,,CLR,0.00,VWS V14.00,2013-07-15 12:32:00,
2013-07-15 08:37:00,84.5,76.1,30.24,SSE,159,0.0,5.0,76,0.00,,CLR,0.00,VWS V14.00,2013-07-15 12:37:00,
2013-07-15 08:42:00,84.8,76.0,30.24,SW,233,1.0,5.0,75,0.00,,CLR,0.00,VWS V14.00,2013-07-15 12:42:00,
2013-07-15 08:47:00,85.3,76.1,30.24,WSW,256,1.0,5.0,74,0.00,,CLR,0.00,VWS V14.00,2013-07-15 12:47:00,
2013-07-15 08:52:00,85.6,76.0,30.24,SSW,201,2.0,5.0,73,0.00,,CLR,0.00,VWS V14.00,2013-07-15 12:52:00,
2013-07-15 08:57:00,85.6,75.1,30.23,North,359,1.0,5.0,71,0.00,,CLR,0.00,VWS V14.00,2013-07-15 12:57:00,
2013-07-15 09:00:00,85.6,75.1,30.23,SSW,196,1.0,5.0,71,0.00,,OVC090,0.00,VWS V14.00,2013-07-15 13:00:00,
2013-07-15 09:02:00,85.5,75.0,30.23,West,262,2.0,4.0,71,0.00,,CLR,0.00,VWS V14.00,2013-07-15 13:02:00,
2013-07-15 09:07:00,85.8,75.7,30.23,WSW,242,4.0,5.0,72,0.00,,CLR,0.00,VWS V14.00,2013-07-15 13:07:00,
2013-07-15 09:12:00,86.1,76.8,30.23,NW,307,3.0,5.0,74,0.00,,CLR,0.00,VWS V14.00,2013-07-15 13:12:00,
2013-07-15 09:17:00,85.9,75.4,30.23,North,6,3.0,5.0,71,0.00,,CLR,0.00,VWS V14.00,2013-07-15 13:17:00,
2013-07-15 09:22:00,86.5,74.7,30.23,SSW,195,5.0,8.0,68,0.00,,CLR,0.00,VWS V14.00,2013-07-15 13:22:00,
2013-07-15 09:27:00,86.6,75.2,30.23,NW,304,1.0,8.0,69,0.00,,CLR,0.00,VWS V14.00,2013-07-15 13:27:00,
2013-07-15 09:30:00,86.8,75.8,30.23,WSW,248,1.0,8.0,70,0.00,,OVC090,0.00,VWS V14.00,2013-07-15 13:30:00,
2013-07-15 09:33:00,86.8,75.0,30.23,WSW,249,3.0,3.0,68,0.00,,CLR,0.00,VWS V14.00,2013-07-15 13:33:00,
2013-07-15 09:38:00,86.9,76.4,30.22,SSE,159,1.0,5.0,71,0.00,,CLR,0.00,VWS V14.00,2013-07-15 13:38:00,
2013-07-15 09:43:00,87.6,76.6,30.22,WSW,256,1.0,5.0,70,0.00,,CLR,0.00,VWS V14.00,2013-07-15 13:43:00,
2013-07-15 09:48:00,87.9,75.1,30.22,SW,236,1.0,5.0,66,0.00,,CLR,0.00,VWS V14.00,2013-07-15 13:48:00,
2013-07-15 09:53:00,87.8,75.5,30.22,North,11,1.0,5.0,67,0.00,,CLR,0.00,VWS V14.00,2013-07-15 13:53:00,
2013-07-15 09:58:00,87.9,74.7,30.22,NW,311,1.0,5.0,65,0.00,,CLR,0.00,VWS V14.00,2013-07-15 13:58:00,
2013-07-15 10:00:00,88.0,76.1,30.22,NE,44,1.0,5.0,68,0.00,,OVC090,0.00,VWS V14.00,2013-07-15 14:00:00,
2013-07-15 10:03:00,88.1,74.9,30.22,NW,307,1.0,3.0,65,0.00,,CLR,0.00,VWS V14.00,2013-07-15 14:03:00,
2013-07-15 10:08:00,88.7,76.8,30.22,SSW,195,0.0,3.0,68,0.00,,CLR,0.00,VWS V14.00,2013-07-15 14:08:00,
2013-07-15 10:13:00,89.7,76.8,30.22,SW,226,2.0,3.0,66,0.00,,CLR,0.00,VWS V14.00,2013-07-15 14:13:00,
2013-07-15 10:18:00,89.5,75.2,30.22,WSW,245,2.0,4.0,63,0.00,,CLR,0.00,VWS V14.00,2013-07-15 14:18:00,
2013-07-15 10:23:00,89.2,75.4,30.21,North,358,1.0,4.0,64,0.00,,CLR,0.00,VWS V14.00,2013-07-15 14:23:00,
2013-07-15 10:28:00,89.8,75.5,30.21,SE,136,3.0,4.0,63,0.00,,CLR,0.00,VWS V14.00,2013-07-15 14:28:00,
2013-07-15 10:30:00,89.7,75.9,30.21,SW,232,3.0,5.0,64,0.00,,OVC090,0.00,VWS V14.00,2013-07-15 14:30:00,
2013-07-15 10:33:00,89.5,75.2,30.21,SSW,206,2.0,3.0,63,0.00,,CLR,0.00,VWS V14.00,2013-07-15 14:33:00,
2013-07-15 10:38:00,90.1,76.8,30.21,WNW,283,1.0,4.0,65,0.00,,CLR,0.00,VWS V14.00,2013-07-15 14:38:00,
2013-07-15 10:43:00,90.2,75.9,30.21,WNW,295,1.0,4.0,63,0.00,,CLR,0.00,VWS V14.00,2013-07-15 14:43:00,
2013-07-15 10:48:00,90.4,75.6,30.21,West,270,1.0,4.0,62,0.00,,CLR,0.00,VWS V14.00,2013-07-15 14:48:00,
2013-07-15 10:54:00,90.1,75.3,30.21,SE,142,2.0,5.0,62,0.00,,CLR,0.00,VWS V14.00,2013-07-15 14:54:00,
2013-07-15 10:59:00,90.3,76.0,30.20,NNW,330,1.0,5.0,63,0.00,,CLR,0.00,VWS V14.00,2013-07-15 14:59:00,
2013-07-15 11:00:00,90.4,76.1,30.20,WNW,296,0.0,5.0,63,0.00,,OVC090,0.00,VWS V14.00,2013-07-15 15:00:00,
2013-07-15 11:04:00,90.8,74.5,30.20,ENE,65,1.0,4.0,59,0.00,,CLR,0.00,VWS V14.00,2013-07-15 15:04:00,
2013-07-15 11:10:00,90.9,75.1,30.20,NNW,340,2.0,4.0,60,0.00,,CLR,0.00,VWS V14.00,2013-07-15 15:10:00,
2013-07-15 11:15:00,91.1,75.8,30.20,SSE,151,1.0,4.0,61,0.00,,CLR,0.00,VWS V14.00,2013-07-15 15:15:00,
2013-07-15 11:20:00,91.6,77.2,30.20,WSW,248,1.0,4.0,63,0.00,,CLR,0.00,VWS V14.00,2013-07-15 15:20:00,
2013-07-15 11:25:00,91.7,75.3,30.20,SSW,208,3.0,4.0,59,0.00,,CLR,0.00,VWS V14.00,2013-07-15 15:25:00,
2013-07-15 11:30:00,91.6,75.2,30.20,NNW,333,2.0,4.0,59,0.00,,OVC090,0.00,VWS V14.00,2013-07-15 15:30:00,
2013-07-15 11:31:00,91.6,75.8,30.20,WSW,255,1.0,2.0,60,0.00,,CLR,0.00,VWS V14.00,2013-07-15 15:31:00,
2013-07-15 11:36:00,92.1,75.7,30.20,NW,321,0.0,5.0,59,0.00,,CLR,0.00,VWS V14.00,2013-07-15 15:36:00,
2013-07-15 11:41:00,92.1,75.7,30.20,WNW,290,3.0,5.0,59,0.00,,CLR,0.00,VWS V14.00,2013-07-15 15:41:00,
2013-07-15 11:46:00,92.1,76.7,30.20,WSW,252,2.0,5.0,61,0.00,,CLR,0.00,VWS V14.00,2013-07-15 15:46:00,
2013-07-15 11:51:00,92.8,77.4,30.20,NW,326,3.0,5.0,61,0.00,,CLR,0.00,VWS V14.00,2013-07-15 15:51:00,
2013-07-15 11:56:00,92.7,76.8,30.20,West,260,0.0,5.0,60,0.00,,CLR,0.00,VWS V14.00,2013-07-15 15:56:00,
2013-07-15 12:00:00,92.9,77.0,30.20,SSE,148,1.0,5.0,60,0.00,,OVC090,0.00,VWS V14.00,2013-07-15 16:00:00,
2013-07-15 12:02:00,92.7,75.2,30.19,NW,312,3.0,4.0,57,0.00,,CLR,0.00,VWS V14.00,2013-07-15 16:02:00,
2013-07-15 12:07:00,92.4,76.0,30.19,NNE,17,3.0,4.0,59,0.00,,CLR,0.00,VWS V14.00,2013-07-15 16:07:00,
2013-07-15 12:13:00,92.5,78.1,30.19,WNW,300,3.0,7.0,63,0.00,,CLR,0.00,VWS V14.00,2013-07-15 16:13:00,
2013-07-15 12:18:00,93.4,77.4,30.19,West,276,1.0,7.0,60,0.00,,CLR,0.00,VWS V14.00,2013-07-15 16:18:00,
2013-07-15 12:23:00,94.0,78.0,30.19,NNW,338,1.0,7.0,60,0.00,,CLR,0.00,VWS V14.00,2013-07-15 16:23:00,
2013-07-15 12:28:00,93.8,77.3,30.19,SSE,152,1.0,7.0,59,0.00,,CLR,0.00,VWS V14.00,2013-07-15 16:28:00,
2013-07-15 12:30:00,93.9,76.4,30.19,NNW,330,2.0,7.0,57,0.00,,OVC090,0.00,VWS V14.00,2013-07-15 16:30:00,
2013-07-15 12:33:00,93.8,77.3,30.19,WNW,300,2.0,8.0,59,0.00,,CLR,0.00,VWS V14.00,2013-07-15 16:33:00,
2013-07-15 12:38:00,94.3,77.3,30.19,North,358,4.0,8.0,58,0.00,,CLR,0.00,VWS V14.00,2013-07-15 16:38:00,
2013-07-15 12:43:00,93.8,75.7,30.19,WNW,288,2.0,8.0,56,0.00,,CLR,0.00,VWS V14.00,2013-07-15 16:43:00,
2013-07-15 12:49:00,94.2,77.2,30.18,SE,146,0.0,8.0,58,0.00,,CLR,0.00,VWS V14.00,2013-07-15 16:49:00,
2013-07-15 12:55:00,94.9,75.7,30.18,WNW,300,3.0,8.0,54,0.00,,CLR,0.00,VWS V14.00,2013-07-15 16:55:00,
2013-07-15 13:00:00,94.5,76.9,30.18,ENE,77,1.0,3.0,57,0.00,,CLR,0.00,VWS V14.00,2013-07-15 17:00:00,
2013-07-15 13:05:00,95.3,77.1,30.18,NE,49,1.0,3.0,56,0.00,,CLR,0.00,VWS V14.00,2013-07-15 17:05:00,
2013-07-15 13:10:00,95.3,77.1,30.17,WNW,288,2.0,4.0,56,0.00,,CLR,0.00,VWS V14.00,2013-07-15 17:10:00,
2013-07-15 13:16:00,93.5,76.0,30.17,NW,324,0.0,5.0,57,0.00,,CLR,0.00,VWS V14.00,2013-07-15 17:16:00,
2013-07-15 13:22:00,93.6,77.6,30.17,NNW,348,2.0,5.0,60,0.00,,CLR,0.00,VWS V14.00,2013-07-15 17:22:00,
2013-07-15 13:27:00,94.0,76.5,30.17,NW,313,2.0,5.0,57,0.00,,CLR,0.00,VWS V14.00,2013-07-15 17:27:00,
2013-07-15 13:30:00,94.2,75.6,30.17,NW,311,1.0,5.0,55,0.00,,CLR,0.00,VWS V14.00,2013-07-15 17:30:00,
2013-07-15 13:32:00,94.6,75.9,30.17,NW,315,2.0,3.0,55,0.00,,CLR,0.00,VWS V14.00,2013-07-15 17:32:00,
2013-07-15 13:37:00,95.2,77.0,30.17,ENE,72,1.0,3.0,56,0.00,,CLR,0.00,VWS V14.00,2013-07-15 17:37:00,
2013-07-15 13:42:00,94.3,74.6,30.17,NNW,339,1.0,3.0,53,0.00,,CLR,0.00,VWS V14.00,2013-07-15 17:42:00,
2013-07-15 13:48:00,94.9,75.7,30.16,WSW,257,0.0,3.0,54,0.00,,CLR,0.00,VWS V14.00,2013-07-15 17:48:00,
2013-07-15 13:53:00,94.8,75.6,30.17,NW,316,2.0,5.0,54,0.00,,CLR,0.00,VWS V14.00,2013-07-15 17:53:00,
2013-07-15 13:58:00,94.4,75.8,30.16,WNW,301,0.0,5.0,55,0.00,,CLR,0.00,VWS V14.00,2013-07-15 17:58:00,
2013-07-15 14:00:00,94.5,76.9,30.16,North,355,3.0,5.0,57,0.00,,OVC090,0.00,VWS V14.00,2013-07-15 18:00:00,
2013-07-15 14:03:00,95.0,77.4,30.16,North,5,2.0,3.0,57,0.00,,SCT046,0.00,VWS V14.00,2013-07-15 18:03:00,
2013-07-15 14:09:00,95.0,77.4,30.16,NW,309,1.0,5.0,57,0.00,,SCT046,0.00,VWS V14.00,2013-07-15 18:09:00,
2013-07-15 14:15:00,95.9,77.7,30.16,WNW,290,0.0,5.0,56,0.00,,SCT046,0.00,VWS V14.00,2013-07-15 18:15:00,
2013-07-15 14:20:00,96.2,76.9,30.16,SW,226,2.0,5.0,54,0.00,,SCT046,0.00,VWS V14.00,2013-07-15 18:20:00,
2013-07-15 14:25:00,96.5,75.4,30.16,NNW,331,0.0,5.0,51,0.00,,SCT046,0.00,VWS V14.00,2013-07-15 18:25:00,
2013-07-15 14:30:00,97.5,79.2,30.16,South,177,1.0,2.0,56,0.00,,SCT046,0.00,VWS V14.00,2013-07-15 18:30:00,
2013-07-15 14:35:00,97.0,75.3,30.15,NNW,345,1.0,3.0,50,0.00,,SCT046,0.00,VWS V14.00,2013-07-15 18:35:00,
2013-07-15 14:40:00,96.4,77.1,30.15,SE,134,0.0,3.0,54,0.00,,SCT046,0.00,VWS V14.00,2013-07-15 18:40:00,
2013-07-15 14:46:00,96.3,75.2,30.15,NW,308,2.0,4.0,51,0.00,,SCT046,0.00,VWS V14.00,2013-07-15 18:46:00,
2013-07-15 14:52:00,95.5,74.5,30.15,NW,321,0.0,4.0,51,0.00,,SCT046,0.00,VWS V14.00,2013-07-15 18:52:00,
2013-07-15 14:57:00,95.7,75.3,30.15,NW,319,1.0,4.0,52,0.00,,SCT046,0.00,VWS V14.00,2013-07-15 18:57:00,
2013-07-15 15:00:00,95.4,74.4,30.15,WSW,256,2.0,4.0,51,0.00,,OVC090,0.00,VWS V14.00,2013-07-15 19:00:00,
2013-07-15 15:03:00,95.2,76.5,30.15,NNW,344,3.0,3.0,55,0.00,,SCT046,0.00,VWS V14.00,2013-07-15 19:03:00,
2013-07-15 15:08:00,95.4,76.7,30.15,West,269,1.0,4.0,55,0.00,,SCT046,0.00,VWS V14.00,2013-07-15 19:08:00,
2013-07-15 15:13:00,96.4,78.2,30.15,West,262,0.0,4.0,56,0.00,,CLR,0.00,VWS V14.00,2013-07-15 19:13:00,
2013-07-15 15:19:00,95.9,77.1,30.14,WNW,285,0.0,4.0,55,0.00,,CLR,0.00,VWS V14.00,2013-07-15 19:19:00,
2013-07-15 15:24:00,95.2,77.0,30.15,WSW,250,0.0,4.0,56,0.00,,CLR,0.00,VWS V14.00,2013-07-15 19:24:00,
2013-07-15 15:29:00,94.7,76.0,30.15,NW,311,0.0,0.0,55,0.00,,CLR,0.00,VWS V14.00,2013-07-15 19:29:00,
2013-07-15 15:30:00,94.8,75.6,30.15,NW,311,0.0,4.0,54,0.00,,CLR,0.00,VWS V14.00,2013-07-15 19:30:00,
2013-07-15 15:34:00,94.7,78.2,30.15,ESE,103,1.0,3.0,59,0.00,,CLR,0.00,VWS V14.00,2013-07-15 19:34:00,
2013-07-15 15:40:00,91.6,76.2,30.14,East,89,0.0,4.0,61,0.00,,CLR,0.00,VWS V14.00,2013-07-15 19:40:00,
2013-07-15 15:45:00,89.3,75.5,30.14,ESE,114,2.0,4.0,64,0.00,,CLR,0.00,VWS V14.00,2013-07-15 19:45:00,
2013-07-15 15:51:00,87.6,76.6,30.14,North,11,1.0,4.0,70,0.01,,CLR,0.01,VWS V14.00,2013-07-15 19:51:00,
2013-07-15 15:56:00,86.0,77.2,30.14,NNE,18,0.0,4.0,75,0.02,,CLR,0.02,VWS V14.00,2013-07-15 19:56:00,
2013-07-15 16:00:00,85.6,78.0,30.14,NNE,17,0.0,4.0,78,0.02,,OVC090,0.02,VWS V14.00,2013-07-15 20:00:00,
2013-07-15 16:01:00,85.5,77.9,30.14,NNE,17,0.0,1.0,78,0.02,,FEW050,0.02,VWS V14.00,2013-07-15 20:01:00,
2013-07-15 16:06:00,85.6,78.0,30.14,NNE,17,0.0,1.0,78,0.02,,FEW050,0.02,VWS V14.00,2013-07-15 20:06:00,
2013-07-15 16:11:00,86.0,78.7,30.14,NNE,18,0.0,1.0,79,0.02,,FEW050,0.02,VWS V14.00,2013-07-15 20:11:00,
2013-07-15 16:16:00,86.4,78.7,30.13,NNE,17,0.0,1.0,78,0.02,,FEW050,0.02,VWS V14.00,2013-07-15 20:16:00,
2013-07-15 16:22:00,87.7,78.8,30.13,NW,325,0.0,1.0,75,0.02,,FEW050,0.02,VWS V14.00,2013-07-15 20:22:00,
2013-07-15 16:27:00,89.5,79.3,30.13,North,350,0.0,1.0,72,0.02,,FEW050,0.02,VWS V14.00,2013-07-15 20:27:00,
2013-07-15 16:30:00,90.4,80.6,30.13,North,350,0.0,1.0,73,0.02,,OVC090,0.02,VWS V14.00,2013-07-15 20:30:00,
2013-07-15 16:33:00,91.9,79.8,30.13,WNW,290,0.0,0.0,68,0.02,,FEW050,0.02,VWS V14.00,2013-07-15 20:33:00,
2013-07-15 16:38:00,93.4,79.4,30.13,NW,323,0.0,0.0,64,0.02,,FEW050,0.02,VWS V14.00,2013-07-15 20:38:00,
2013-07-15 16:44:00,93.3,77.8,30.12,NW,307,0.0,3.0,61,0.02,,FEW050,0.02,VWS V14.00,2013-07-15 20:44:00,
2013-07-15 16:49:00,93.3,78.8,30.13,NNW,344,5.0,5.0,63,0.02,,FEW050,0.02,VWS V14.00,2013-07-15 20:49:00,
2013-07-15 16:54:00,93.2,76.8,30.12,NNE,29,0.0,5.0,59,0.02,,FEW050,0.02,VWS V14.00,2013-07-15 20:54:00,
2013-07-15 16:59:00,93.1,76.7,30.12,NNW,327,1.0,5.0,59,0.02,,FEW050,0.02,VWS V14.00,2013-07-15 20:59:00,
2013-07-15 17:00:00,93.1,76.7,30.12,NNW,327,1.0,5.0,59,0.02,,OVC090,0.02,VWS V14.00,2013-07-15 21:00:00,
2013-07-15 17:04:00,93.7,77.2,30.12,WNW,297,0.0,2.0,59,0.00,,CLR,0.02,VWS V14.00,2013-07-15 21:04:00,
2013-07-15 17:09:00,93.3,76.8,30.12,NNW,342,1.0,4.0,59,0.00,,CLR,0.02,VWS V14.00,2013-07-15 21:09:00,
2013-07-15 17:15:00,92.4,78.0,30.12,NNW,342,1.0,4.0,63,0.00,,CLR,0.02,VWS V14.00,2013-07-15 21:15:00,
2013-07-15 17:20:00,91.0,78.1,30.13,WNW,300,3.0,5.0,66,0.00,,CLR,0.02,VWS V14.00,2013-07-15 21:20:00,
2013-07-15 17:26:00,88.3,78.1,30.13,NNW,340,1.0,6.0,72,0.00,,CLR,0.02,VWS V14.00,2013-07-15 21:26:00,
2013-07-15 17:30:00,87.1,77.0,30.13,WNW,303,2.0,6.0,72,0.00,,OVC090,0.02,VWS V14.00,2013-07-15 21:30:00,
2013-07-15 17:32:00,86.6,77.3,30.13,NNW,339,0.0,3.0,74,0.00,,CLR,0.02,VWS V14.00,2013-07-15 21:32:00,
2013-07-15 17:37:00,86.3,76.6,30.12,ENE,58,0.0,3.0,73,0.00,,CLR,0.02,VWS V14.00,2013-07-15 21:37:00,
2013-07-15 17:43:00,86.3,77.0,30.12,ENE,58,0.0,3.0,74,0.00,,CLR,0.02,VWS V14.00,2013-07-15 21:43:00,
2013-07-15 17:48:00,86.4,78.3,30.12,ENE,58,0.0,3.0,77,0.00,,CLR,0.02,VWS V14.00,2013-07-15 21:48:00,
2013-07-15 17:54:00,87.1,78.6,30.12,NNE,21,0.0,3.0,76,0.00,,CLR,0.02,VWS V14.00,2013-07-15 21:54:00,
2013-07-15 17:59:00,88.2,78.0,30.12,NNE,21,0.0,3.0,72,0.00,,CLR,0.02,VWS V14.00,2013-07-15 21:59:00,
2013-07-15 18:00:00,88.3,78.1,30.12,NNE,21,0.0,3.0,72,0.00,,OVC090,0.02,VWS V14.00,2013-07-15 22:00:00,
2013-07-15 18:04:00,88.7,77.7,30.12,NNE,22,0.0,0.0,70,0.00,,BKN070,0.02,VWS V14.00,2013-07-15 22:04:00,
2013-07-15 18:09:00,89.2,79.0,30.11,NNE,21,0.0,0.0,72,0.00,,BKN070,0.02,VWS V14.00,2013-07-15 22:09:00,
2013-07-15 18:14:00,90.2,79.1,30.11,NNE,21,0.0,0.0,70,0.00,,BKN070,0.02,VWS V14.00,2013-07-15 22:14:00,
2013-07-15 18:19:00,90.9,79.8,30.11,NNE,21,0.0,0.0,70,0.00,,BKN070,0.02,VWS V14.00,2013-07-15 22:19:00,
2013-07-15 18:25:00,91.3,79.3,30.12,NNE,21,0.0,0.0,68,0.00,,BKN070,0.02,VWS V14.00,2013-07-15 22:25:00,
2013-07-15 18:30:00,90.9,80.2,30.11,NNE,20,0.0,0.0,71,0.00,,BKN070,0.02,VWS V14.00,2013-07-15 22:30:00,
2013-07-15 18:35:00,91.0,80.3,30.11,NNE,20,0.0,0.0,71,0.00,,BKN070,0.02,VWS V14.00,2013-07-15 22:35:00,
2013-07-15 18:41:00,91.0,80.7,30.11,NNE,20,0.0,0.0,72,0.00,,BKN070,0.02,VWS V14.00,2013-07-15 22:41:00,
2013-07-15 18:46:00,90.4,81.0,30.11,South,173,0.0,0.0,74,0.00,,BKN070,0.02,VWS V14.00,2013-07-15 22:46:00,
2013-07-15 18:51:00,90.1,81.1,30.11,South,173,0.0,0.0,75,0.00,,BKN070,0.02,VWS V14.00,2013-07-15 22:51:00,
2013-07-15 18:57:00,90.0,79.8,30.11,WNW,291,0.0,0.0,72,0.00,,BKN070,0.02,VWS V14.00,2013-07-15 22:57:00,
2013-07-15 19:00:00,89.8,78.7,30.12,WNW,292,0.0,0.0,70,0.00,,OVC090,0.02,VWS V14.00,2013-07-15 23:00:00,
2013-07-15 19:02:00,89.5,78.4,30.11,WNW,293,0.0,0.0,70,0.00,,FEW090,0.02,VWS V14.00,2013-07-15 23:02:00,
2013-07-15 19:07:00,89.2,78.6,30.12,NW,316,0.0,0.0,71,0.00,,FEW090,0.02,VWS V14.00,2013-07-15 23:07:00,
2013-07-15 19:13:00,88.9,79.5,30.12,WNW,291,1.0,2.0,74,0.00,,FEW090,0.02,VWS V14.00,2013-07-15 23:13:00,
2013-07-15 19:18:00,88.7,78.5,30.12,WNW,291,0.0,2.0,72,0.00,,FEW090,0.02,VWS V14.00,2013-07-15 23:18:00,
2013-07-15 19:23:00,88.6,78.8,30.12,WNW,291,0.0,2.0,73,0.00,,FEW090,0.02,VWS V14.00,2013-07-15 23:23:00,
2013-07-15 19:29:00,88.4,78.7,30.12,WNW,291,0.0,2.0,73,0.00,,FEW090,0.02,VWS V14.00,2013-07-15 23:29:00,
2013-07-15 19:30:00,88.4,78.7,30.12,WNW,291,0.0,2.0,73,0.00,,CLR,0.02,VWS V14.00,2013-07-15 23:30:00,
2013-07-15 19:34:00,87.9,79.0,30.12,WNW,291,0.0,0.0,75,0.00,,FEW090,0.02,VWS V14.00,2013-07-15 23:34:00,
2013-07-15 19:39:00,87.4,78.5,30.12,WNW,291,0.0,0.0,75,0.00,,FEW090,0.02,VWS V14.00,2013-07-15 23:39:00,
2013-07-15 19:44:00,86.7,78.6,30.12,WNW,291,0.0,0.0,77,0.00,,FEW090,0.02,VWS V14.00,2013-07-15 23:44:00,
2013-07-15 19:50:00,86.3,78.6,30.11,WNW,291,0.0,0.0,78,0.00,,FEW090,0.02,VWS V14.00,2013-07-15 23:50:00,
2013-07-15 19:55:00,86.0,79.1,30.11,WNW,295,0.0,0.0,80,0.00,,FEW090,0.02,VWS V14.00,2013-07-15 23:55:00,
2013-07-15 20:00:00,85.7,78.8,30.11,WNW,295,0.0,0.0,80,0.00,,CLR,0.02,VWS V14.00,2013-07-16 00:00:00,
2013-07-15 20:05:00,85.4,78.9,30.11,WNW,295,0.0,0.0,81,0.00,,CLR,0.02,VWS V14.00,2013-07-16 00:05:00,
2013-07-15 20:10:00,85.1,79.0,30.11,WNW,295,0.0,0.0,82,0.00,,CLR,0.02,VWS V14.00,2013-07-16 00:10:00,
2013-07-15 20:16:00,84.7,79.0,30.11,WNW,295,0.0,0.0,83,0.00,,CLR,0.02,VWS V14.00,2013-07-16 00:16:00,
2013-07-15 20:21:00,84.2,78.5,30.11,WNW,295,0.0,0.0,83,0.00,,CLR,0.02,VWS V14.00,2013-07-16 00:21:00,
2013-07-15 20:26:00,83.7,78.7,30.11,WNW,295,0.0,0.0,85,0.00,,CLR,0.02,VWS V14.00,2013-07-16 00:26:00,
2013-07-15 20:30:00,83.4,78.4,30.11,WNW,295,0.0,0.0,85,0.00,,OVC090,0.02,VWS V14.00,2013-07-16 00:30:00,
2013-07-15 20:32:00,83.1,78.1,30.11,WNW,295,0.0,0.0,85,0.00,,CLR,0.02,VWS V14.00,2013-07-16 00:32:00,
2013-07-15 20:37:00,82.7,78.1,30.11,WNW,295,0.0,0.0,86,0.00,,CLR,0.02,VWS V14.00,2013-07-16 00:37:00,
2013-07-15 20:42:00,82.3,78.1,30.11,WNW,295,0.0,0.0,87,0.00,,CLR,0.02,VWS V14.00,2013-07-16 00:42:00,
2013-07-15 20:48:00,81.8,77.9,30.11,WNW,295,0.0,0.0,88,0.00,,CLR,0.02,VWS V14.00,2013-07-16 00:48:00,
2013-07-15 20:53:00,81.5,77.9,30.11,WNW,295,0.0,0.0,89,0.00,,CLR,0.02,VWS V14.00,2013-07-16 00:53:00,
2013-07-15 20:58:00,81.1,77.6,30.12,WNW,295,0.0,0.0,89,0.00,,CLR,0.02,VWS V14.00,2013-07-16 00:58:00,
2013-07-15 21:00:00,81.1,77.9,30.12,WNW,295,0.0,0.0,90,0.00,,OVC090,0.02,VWS V14.00,2013-07-16 01:00:00,
2013-07-15 21:03:00,80.9,77.7,30.12,WNW,295,0.0,0.0,90,0.00,,FEW060,0.02,VWS V14.00,2013-07-16 01:03:00,
2013-07-15 21:08:00,80.6,77.4,30.12,WNW,295,0.0,0.0,90,0.00,,FEW060,0.02,VWS V14.00,2013-07-16 01:08:00,
2013-07-15 21:13:00,80.5,77.3,30.12,WNW,295,0.0,0.0,90,0.00,,FEW060,0.02,VWS V14.00,2013-07-16 01:13:00,
2013-07-15 21:19:00,80.5,77.3,30.12,WNW,295,0.0,0.0,90,0.00,,FEW060,0.02,VWS V14.00,2013-07-16 01:19:00,
2013-07-15 21:24:00,80.4,77.2,30.12,WNW,295,0.0,0.0,90,0.00,,FEW060,0.02,VWS V14.00,2013-07-16 01:24:00,
2013-07-15 21:29:00,80.2,77.0,30.12,WNW,295,0.0,0.0,90,0.00,,FEW060,0.02,VWS V14.00,2013-07-16 01:29:00,
2013-07-15 21:30:00,80.1,76.9,30.12,WNW,295,0.0,0.0,90,0.00,,OVC090,0.02,VWS V14.00,2013-07-16 01:30:00,
2013-07-15 21:34:00,79.8,76.6,30.12,WNW,295,0.0,0.0,90,0.00,,FEW060,0.02,VWS V14.00,2013-07-16 01:34:00,
2013-07-15 21:40:00,79.4,76.6,30.12,WNW,295,0.0,0.0,91,0.00,,FEW060,0.02,VWS V14.00,2013-07-16 01:40:00,
2013-07-15 21:45:00,79.2,76.3,30.12,WNW,295,0.0,0.0,91,0.00,,FEW060,0.02,VWS V14.00,2013-07-16 01:45:00,
2013-07-15 21:50:00,78.9,76.4,30.13,WNW,295,0.0,0.0,92,0.00,,FEW060,0.02,VWS V14.00,2013-07-16 01:50:00,
2013-07-15 21:55:00,78.5,76.0,30.13,WNW,295,0.0,0.0,92,0.00,,FEW060,0.02,VWS V14.00,2013-07-16 01:55:00,
2013-07-15 22:00:00,78.4,75.9,30.13,WNW,295,0.0,0.0,92,0.00,,OVC090,0.02,VWS V14.00,2013-07-16 02:00:00,
2013-07-15 22:01:00,78.3,75.8,30.13,WNW,295,0.0,0.0,92,0.00,,CLR,0.02,VWS V14.00,2013-07-16 02:01:00,
2013-07-15 22:06:00,78.2,76.0,30.13,WNW,295,0.0,0.0,93,0.00,,CLR,0.02,VWS V14.00,2013-07-16 02:06:00,
2013-07-15 22:11:00,78.0,75.8,30.13,WNW,295,0.0,0.0,93,0.00,,CLR,0.02,VWS V14.00,2013-07-16 02:11:00,
2013-07-15 22:17:00,77.9,75.7,30.13,WNW,295,0.0,0.0,93,0.00,,CLR,0.02,VWS V14.00,2013-07-16 02:17:00,
2013-07-15 22:22:00,77.6,75.4,30.13,WNW,295,0.0,0.0,93,0.00,,CLR,0.02,VWS V14.00,2013-07-16 02:22:00,
2013-07-15 22:28:00,77.5,75.3,30.13,WNW,295,0.0,0.0,93,0.00,,CLR,0.02,VWS V14.00,2013-07-16 02:28:00,
2013-07-15 22:30:00,77.5,75.3,30.13,WNW,295,0.0,0.0,93,0.00,,OVC090,0.02,VWS V14.00,2013-07-16 02:30:00,
2013-07-15 22:34:00,77.5,75.3,30.13,WNW,295,0.0,0.0,93,0.00,,CLR,0.02,VWS V14.00,2013-07-16 02:34:00,
2013-07-15 22:39:00,77.4,74.9,30.13,WNW,295,0.0,0.0,92,0.00,,CLR,0.02,VWS V14.00,2013-07-16 02:39:00,
2013-07-15 22:45:00,77.3,75.1,30.13,WNW,295,0.0,0.0,93,0.00,,CLR,0.02,VWS V14.00,2013-07-16 02:45:00,
2013-07-15 22:50:00,77.3,75.1,30.14,WNW,295,0.0,0.0,93,0.00,,CLR,0.02,VWS V14.00,2013-07-16 02:50:00,
2013-07-15 22:57:00,77.1,74.6,30.14,WNW,295,0.0,0.0,92,0.00,,CLR,0.02,VWS V14.00,2013-07-16 02:57:00,
2013-07-15 23:00:00,77.1,74.6,30.14,WNW,295,0.0,0.0,92,0.00,,CLR,0.02,VWS V14.00,2013-07-16 03:00:00,
2013-07-15 23:02:00,77.2,74.7,30.14,NW,304,0.0,0.0,92,0.00,,CLR,0.02,VWS V14.00,2013-07-16 03:02:00,
2013-07-15 23:07:00,77.3,74.1,30.14,NW,304,0.0,0.0,90,0.00,,CLR,0.02,VWS V14.00,2013-07-16 03:07:00,
2013-07-15 23:12:00,77.4,74.2,30.14,NW,304,0.0,0.0,90,0.00,,CLR,0.02,VWS V14.00,2013-07-16 03:12:00,
2013-07-15 23:18:00,77.5,74.3,30.14,WNW,303,0.0,0.0,90,0.00,,CLR,0.02,VWS V14.00,2013-07-16 03:18:00,
2013-07-15 23:23:00,77.4,73.2,30.14,NW,304,0.0,0.0,87,0.00,,CLR,0.02,VWS V14.00,2013-07-16 03:23:00,
2013-07-15 23:28:00,77.6,74.1,30.14,WNW,303,0.0,0.0,89,0.00,,CLR,0.02,VWS V14.00,2013-07-16 03:28:00,
2013-07-15 23:30:00,77.6,74.1,30.14,NW,304,0.0,0.0,89,0.00,,OVC090,0.02,VWS V14.00,2013-07-16 03:30:00,
2013-07-15 23:33:00,77.5,74.0,30.14,NW,304,0.0,0.0,89,0.00,,CLR,0.02,VWS V14.00,2013-07-16 03:33:00,
2013-07-15 23:39:00,77.4,73.9,30.14,WNW,303,0.0,0.0,89,0.00,,CLR,0.02,VWS V14.00,2013-07-16 03:39:00,
2013-07-15 23:45:00,77.3,73.8,30.14,WNW,303,0.0,0.0,89,0.00,,CLR,0.02,VWS V14.00,2013-07-16 03:45:00,
2013-07-15 23:51:00,77.2,73.7,30.14,NW,304,0.0,0.0,89,0.00,,CLR,0.02,VWS V14.00,2013-07-16 03:51:00,
2013-07-15 23:56:00,77.2,73.7,30.14,NW,304,0.0,0.0,89,0.00,,CLR,0.02,VWS V14.00,2013-07-16 03:56:00,